createdAt,value
2019-05-30T00:01:29.208Z,97.70
2019-05-30T00:04:00.331Z,97.90
2019-05-30T00:06:34.603Z,98.00
2019-05-30T00:09:12.210Z,97.60
2019-05-30T00:11:43.731Z,97.50
2019-05-30T00:14:17.366Z,97.20
2019-05-30T00:16:50.343Z,97.60
2019-05-30T00:19:20.961Z,97.20
2019-05-30T00:21:52.094Z,97.20
2019-05-30T00:24:27.570Z,97.40
2019-05-30T00:27:00.263Z,97.50
2019-05-30T00:29:29.621Z,97.90
2019-05-30T00:32:04.816Z,98.30
2019-05-30T00:34:37.926Z,98.80
2019-05-30T00:37:08.246Z,99.00
2019-05-30T00:39:45.472Z,99.00
2019-05-30T00:42:17.450Z,99.20
2019-05-30T00:44:48.699Z,99.40
2019-05-30T00:47:20.091Z,99.50
2019-05-30T00:49:49.910Z,99.50
2019-05-30T00:52:21.120Z,99.80
2019-05-30T00:54:56.452Z,99.60
2019-05-30T00:57:31.086Z,99.70
2019-05-30T01:00:05.546Z,99.80
2019-05-30T01:02:37.931Z,99.80
2019-05-30T01:05:10.615Z,99.80
2019-05-30T01:07:40.666Z,99.80
2019-05-30T01:10:12.048Z,99.80
2019-05-30T01:12:44.235Z,99.80
2019-05-30T01:15:20.209Z,99.80
2019-05-30T01:17:51.003Z,99.80
2019-05-30T01:20:23.360Z,99.80
2019-05-30T01:22:54.860Z,99.80
2019-05-30T01:25:27.448Z,99.80
2019-05-30T01:27:59.462Z,99.80
2019-05-30T01:30:30.143Z,99.80
2019-05-30T01:33:03.858Z,99.80
2019-05-30T01:35:33.586Z,99.80
2019-05-30T01:38:10.259Z,99.80
2019-05-30T01:40:41.848Z,99.80
2019-05-30T01:43:17.929Z,99.80
2019-05-30T01:45:56.504Z,99.80
2019-05-30T01:48:28.129Z,99.80
2019-05-30T01:50:58.301Z,99.80
2019-05-30T01:53:27.513Z,99.80
2019-05-30T01:56:00.664Z,99.80
2019-05-30T01:58:32.726Z,99.80
2019-05-30T02:01:17.014Z,99.80
2019-05-30T02:03:36.341Z,99.80
2019-05-30T02:06:06.962Z,99.80
2019-05-30T02:08:36.476Z,99.80
2019-05-30T02:11:07.502Z,99.80
2019-05-30T02:13:39.427Z,99.80
2019-05-30T02:16:17.258Z,99.80
2019-05-30T02:18:47.787Z,99.80
2019-05-30T02:21:18.837Z,99.80
2019-05-30T02:23:51.680Z,99.80
2019-05-30T02:26:24.286Z,99.80
2019-05-30T02:28:53.212Z,99.80
2019-05-30T02:31:38.618Z,99.80
2019-05-30T02:34:10.139Z,99.80
2019-05-30T02:36:39.487Z,99.80
2019-05-30T02:39:17.243Z,99.80
2019-05-30T02:41:53.598Z,99.80
2019-05-30T02:44:28.308Z,99.80
2019-05-30T02:47:01.514Z,99.80
2019-05-30T02:49:37.185Z,99.80
2019-05-30T02:52:13.078Z,99.80
2019-05-30T02:54:44.819Z,99.80
2019-05-30T02:57:17.647Z,99.80
2019-05-30T02:59:52.681Z,99.80
2019-05-30T03:02:26.276Z,99.80
2019-05-30T03:04:57.789Z,99.80
2019-05-30T03:07:28.995Z,99.80
2019-05-30T03:10:02.730Z,99.80
2019-05-30T03:12:34.000Z,99.80
2019-05-30T03:15:07.383Z,99.80
2019-05-30T03:17:36.522Z,99.80
2019-05-30T03:20:18.331Z,99.80
2019-05-30T03:22:38.176Z,99.80
2019-05-30T03:25:11.057Z,99.80
2019-05-30T03:27:41.956Z,99.80
2019-05-30T03:30:21.997Z,99.80
2019-05-30T03:33:11.815Z,99.80
2019-05-30T03:35:28.822Z,99.80
2019-05-30T03:37:51.956Z,99.80
2019-05-30T03:40:25.692Z,99.80
2019-05-30T03:42:57.693Z,99.80
2019-05-30T03:45:31.000Z,99.80
2019-05-30T03:48:06.674Z,99.80
2019-05-30T03:50:39.439Z,99.80
2019-05-30T03:53:13.821Z,99.80
2019-05-30T03:55:45.369Z,99.80
2019-05-30T03:58:27.217Z,99.80
2019-05-30T04:00:59.417Z,99.80
2019-05-30T04:03:43.746Z,99.80
2019-05-30T04:06:26.061Z,99.80
2019-05-30T04:08:59.865Z,99.80
2019-05-30T04:11:39.474Z,99.80
2019-05-30T04:14:13.101Z,99.80
2019-05-30T04:16:44.327Z,99.80
2019-05-30T04:19:15.485Z,99.80
2019-05-30T04:21:44.401Z,99.80
2019-05-30T04:24:14.562Z,99.80
2019-05-30T04:26:45.115Z,99.80
2019-05-30T04:29:16.675Z,99.80
2019-05-30T04:31:45.611Z,99.80
2019-05-30T04:34:15.337Z,99.80
2019-05-30T04:36:46.150Z,99.80
2019-05-30T04:39:17.069Z,99.80
2019-05-30T04:41:46.322Z,99.80
2019-05-30T04:44:16.369Z,99.80
2019-05-30T04:46:46.411Z,99.80
2019-05-30T04:49:21.593Z,99.80
2019-05-30T04:51:50.778Z,99.80
2019-05-30T04:54:21.473Z,99.80
2019-05-30T04:56:50.774Z,99.80
2019-05-30T04:59:23.255Z,99.80
2019-05-30T05:01:53.417Z,99.80
2019-05-30T05:04:22.583Z,99.80
2019-05-30T05:06:51.818Z,99.80
2019-05-30T05:09:22.565Z,99.80
2019-05-30T05:11:51.828Z,99.80
2019-05-30T05:14:22.259Z,99.80
2019-05-30T05:16:51.821Z,99.80
2019-05-30T05:19:25.695Z,99.80
2019-05-30T05:21:53.306Z,99.80
2019-05-30T05:24:23.848Z,99.80
2019-05-30T05:26:53.971Z,99.80
2019-05-30T05:29:24.245Z,99.80
2019-05-30T05:31:53.492Z,99.30
2019-05-30T05:34:22.838Z,99.10
2019-05-30T05:36:52.155Z,98.70
2019-05-30T05:39:24.155Z,98.00
2019-05-30T05:41:53.675Z,98.60
2019-05-30T05:44:22.790Z,98.20
2019-05-30T05:46:52.417Z,97.50
2019-05-30T05:49:22.616Z,97.80
2019-05-30T05:51:52.012Z,97.50
2019-05-30T05:54:21.284Z,97.40
2019-05-30T05:56:50.502Z,96.80
2019-05-30T05:59:20.883Z,95.70
2019-05-30T06:01:52.023Z,95.60
2019-05-30T06:04:21.291Z,95.30
2019-05-30T06:06:50.568Z,95.30
2019-05-30T06:09:20.577Z,95.60
2019-05-30T06:11:50.195Z,95.20
2019-05-30T06:14:20.149Z,94.50
2019-05-30T06:16:49.732Z,94.60
2019-05-30T06:19:19.266Z,94.80
2019-05-30T06:21:54.004Z,94.40
2019-05-30T06:24:20.175Z,94.30
2019-05-30T06:26:49.596Z,93.40
2019-05-30T06:29:20.004Z,93.80
2019-05-30T06:31:49.247Z,94.00
2019-05-30T06:34:30.162Z,93.80
2019-05-30T06:36:49.630Z,93.60
2019-05-30T06:39:19.247Z,94.30
2019-05-30T06:41:50.539Z,93.00
2019-05-30T06:44:20.139Z,92.10
2019-05-30T06:46:50.560Z,91.40
2019-05-30T06:49:22.880Z,91.90
2019-05-30T06:51:52.423Z,91.30
2019-05-30T06:54:24.212Z,90.70
2019-05-30T06:56:53.612Z,90.50
2019-05-30T06:59:23.471Z,91.00
2019-05-30T07:01:52.923Z,90.00
2019-05-30T07:04:23.327Z,90.10
2019-05-30T07:06:53.558Z,89.20
2019-05-30T07:09:24.954Z,87.90
2019-05-30T07:11:54.310Z,88.90
2019-05-30T07:14:25.281Z,87.90
2019-05-30T07:16:54.557Z,88.90
2019-05-30T07:19:25.252Z,87.00
2019-05-30T07:21:54.603Z,87.70
2019-05-30T07:24:28.016Z,87.40
2019-05-30T07:26:57.302Z,86.30
2019-05-30T07:29:26.519Z,87.10
2019-05-30T07:31:56.119Z,86.00
2019-05-30T07:34:25.925Z,85.70
2019-05-30T07:36:57.376Z,85.40
2019-05-30T07:39:31.618Z,83.90
2019-05-30T07:42:06.079Z,83.90
2019-05-30T07:44:31.263Z,85.40
2019-05-30T07:47:00.931Z,81.20
2019-05-30T07:49:30.476Z,82.40
2019-05-30T07:51:59.900Z,82.00
2019-05-30T07:54:29.099Z,81.10
2019-05-30T07:56:58.619Z,81.10
2019-05-30T07:59:28.247Z,81.70
2019-05-30T08:02:12.181Z,80.80
2019-05-30T08:04:41.428Z,81.50
2019-05-30T08:07:10.615Z,80.30
2019-05-30T08:09:40.072Z,80.60
2019-05-30T08:12:09.451Z,81.20
2019-05-30T08:14:38.674Z,80.00
2019-05-30T08:17:08.115Z,79.00
2019-05-30T08:19:38.181Z,79.90
2019-05-30T08:22:07.682Z,79.10
2019-05-30T08:24:36.886Z,77.10
2019-05-30T08:27:06.069Z,77.50
2019-05-30T08:29:36.399Z,77.40
2019-05-30T08:32:05.949Z,74.50
2019-05-30T08:34:35.155Z,75.00
2019-05-30T08:37:04.317Z,75.40
2019-05-30T08:39:33.545Z,76.60
2019-05-30T08:42:03.062Z,73.80
2019-05-30T08:44:35.898Z,72.50
2019-05-30T08:47:05.159Z,73.30
2019-05-30T08:49:34.408Z,74.00
2019-05-30T08:52:03.840Z,70.30
2019-05-30T08:54:34.360Z,70.40
2019-05-30T08:57:03.631Z,72.90
2019-05-30T08:59:32.856Z,70.80
2019-05-30T09:02:04.384Z,69.20
2019-05-30T09:04:34.216Z,67.70
2019-05-30T09:07:03.663Z,65.60
2019-05-30T09:09:33.135Z,65.60
2019-05-30T09:12:03.510Z,66.40
2019-05-30T09:14:32.656Z,66.50
2019-05-30T09:17:02.170Z,66.10
2019-05-30T09:19:31.422Z,64.70
2019-05-30T09:22:00.705Z,64.10
2019-05-30T09:24:30.230Z,65.90
2019-05-30T09:27:00.030Z,64.90
2019-05-30T09:29:29.208Z,62.70
2019-05-30T09:31:58.414Z,64.90
2019-05-30T09:34:28.025Z,63.90
2019-05-30T09:36:57.220Z,66.10
2019-05-30T09:39:29.594Z,65.70
2019-05-30T09:41:57.906Z,63.90
2019-05-30T09:44:28.019Z,65.20
2019-05-30T09:46:57.722Z,65.00
2019-05-30T09:49:27.220Z,64.50
2019-05-30T09:51:56.447Z,66.20
2019-05-30T09:54:25.649Z,69.60
2019-05-30T09:56:57.235Z,69.00
2019-05-30T09:59:26.370Z,72.30
2019-05-30T10:01:55.619Z,71.80
2019-05-30T10:04:25.021Z,70.70
2019-05-30T10:06:54.248Z,70.30
2019-05-30T10:09:23.488Z,69.80
2019-05-30T10:11:53.516Z,68.60
2019-05-30T10:14:22.964Z,68.70
2019-05-30T10:16:55.003Z,67.00
2019-05-30T10:19:23.702Z,67.20
2019-05-30T10:21:53.627Z,67.20
2019-05-30T10:24:22.962Z,67.80
2019-05-30T10:26:53.199Z,67.50
2019-05-30T10:29:26.287Z,66.30
2019-05-30T10:31:56.878Z,66.20
2019-05-30T10:34:26.098Z,65.10
2019-05-30T10:36:55.755Z,65.30
2019-05-30T10:39:25.473Z,64.90
2019-05-30T10:41:55.455Z,65.30
2019-05-30T10:44:24.739Z,66.10
2019-05-30T10:46:54.908Z,63.50
2019-05-30T10:49:34.163Z,63.70
2019-05-30T10:51:59.326Z,63.00
2019-05-30T10:54:28.794Z,61.30
2019-05-30T10:56:58.047Z,61.80
2019-05-30T10:59:27.289Z,62.80
2019-05-30T11:01:56.805Z,62.90
2019-05-30T11:04:26.255Z,64.50
2019-05-30T11:07:31.441Z,63.60
2019-05-30T11:10:06.939Z,63.10
2019-05-30T11:12:38.429Z,62.30
2019-05-30T11:15:09.000Z,62.30
2019-05-30T11:17:38.497Z,61.70
2019-05-30T11:20:08.163Z,60.50
2019-05-30T11:22:37.705Z,62.70
2019-05-30T11:25:07.183Z,61.70
2019-05-30T11:27:36.932Z,61.80
2019-05-30T11:30:08.721Z,61.50
2019-05-30T11:32:38.243Z,62.20
2019-05-30T11:35:07.656Z,61.50
2019-05-30T11:37:36.804Z,62.00
2019-05-30T11:40:06.563Z,64.20
2019-05-30T11:42:35.779Z,65.00
2019-05-30T11:45:05.420Z,63.40
2019-05-30T11:47:34.991Z,65.00
2019-05-30T11:50:04.320Z,65.70
2019-05-30T11:52:34.178Z,65.80
2019-05-30T11:55:03.469Z,64.70
2019-05-30T11:57:32.664Z,65.60
2019-05-30T12:00:01.789Z,65.90
2019-05-30T12:02:31.056Z,66.40
2019-05-30T12:05:00.934Z,65.80
2019-05-30T12:07:36.362Z,65.30
2019-05-30T12:10:01.326Z,64.40
2019-05-30T12:12:31.056Z,62.50
2019-05-30T12:15:01.488Z,61.00
2019-05-30T12:17:31.165Z,63.10
2019-05-30T12:20:01.933Z,59.80
2019-05-30T12:22:34.620Z,61.50
2019-05-30T12:25:05.121Z,61.50
2019-05-30T12:27:34.361Z,60.40
2019-05-30T12:30:08.019Z,60.80
2019-05-30T12:32:37.556Z,61.60
2019-05-30T12:35:09.249Z,62.60
2019-05-30T12:37:58.496Z,63.70
2019-05-30T12:40:24.944Z,64.30
2019-05-30T12:42:57.344Z,63.70
2019-05-30T12:45:26.940Z,63.00
2019-05-30T12:47:57.078Z,63.10
2019-05-30T12:50:26.464Z,63.90
2019-05-30T12:52:55.699Z,63.70
2019-05-30T12:55:25.168Z,64.50
2019-05-30T12:57:55.115Z,63.70
2019-05-30T13:00:26.945Z,63.60
2019-05-30T13:02:56.743Z,62.60
2019-05-30T13:05:26.384Z,63.60
2019-05-30T13:08:11.716Z,63.50
2019-05-30T13:10:27.125Z,63.10
2019-05-30T13:12:57.419Z,60.30
2019-05-30T13:15:27.058Z,59.80
2019-05-30T13:17:57.313Z,59.30
2019-05-30T13:20:26.936Z,58.10
2019-05-30T13:22:56.337Z,56.30
2019-05-30T13:25:26.400Z,57.40
2019-05-30T13:27:55.911Z,55.70
2019-05-30T13:30:25.139Z,56.80
2019-05-30T13:32:54.330Z,53.20
2019-05-30T13:35:23.491Z,53.10
2019-05-30T13:37:52.972Z,52.10
2019-05-30T13:40:25.414Z,54.70
2019-05-30T13:42:54.070Z,53.10
2019-05-30T13:45:23.340Z,52.90
2019-05-30T13:47:52.507Z,57.20
2019-05-30T13:50:21.795Z,54.50
2019-05-30T13:52:51.270Z,54.40
2019-05-30T13:55:20.559Z,57.40
2019-05-30T13:57:50.036Z,57.60
2019-05-30T14:00:19.587Z,55.00
2019-05-30T14:02:48.745Z,54.00
2019-05-30T14:05:18.325Z,53.90
2019-05-30T14:07:47.482Z,54.60
2019-05-30T14:10:16.838Z,54.60
2019-05-30T14:12:46.163Z,53.70
2019-05-30T14:15:15.941Z,56.50
2019-05-30T14:17:46.219Z,54.10
2019-05-30T14:20:17.347Z,51.40
2019-05-30T14:22:46.590Z,52.40
2019-05-30T14:25:17.375Z,52.90
2019-05-30T14:27:46.831Z,54.10
2019-05-30T14:30:16.219Z,53.50
2019-05-30T14:32:45.371Z,51.60
2019-05-30T14:35:15.337Z,55.30
2019-05-30T14:37:44.501Z,52.90
2019-05-30T14:40:15.581Z,51.90
2019-05-30T14:42:46.973Z,52.20
2019-05-30T14:45:17.630Z,52.50
2019-05-30T14:47:46.930Z,52.80
2019-05-30T14:50:17.591Z,53.80
2019-05-30T14:52:47.431Z,54.90
2019-05-30T14:55:17.370Z,55.70
2019-05-30T14:57:46.746Z,56.50
2019-05-30T15:00:17.839Z,58.40
2019-05-30T15:02:47.097Z,58.10
2019-05-30T15:05:16.692Z,58.20
2019-05-30T15:07:45.846Z,58.80
2019-05-30T15:10:15.385Z,59.20
2019-05-30T15:12:44.828Z,60.10
2019-05-30T15:15:18.154Z,60.50
2019-05-30T15:17:46.154Z,61.30
2019-05-30T15:20:15.747Z,61.50
2019-05-30T15:22:46.676Z,61.60
2019-05-30T15:25:21.958Z,63.30
2019-05-30T15:27:53.420Z,63.00
2019-05-30T15:30:22.697Z,63.50
2019-05-30T15:32:52.200Z,62.50
2019-05-30T15:35:21.434Z,62.70
2019-05-30T15:37:50.625Z,62.40
2019-05-30T15:40:19.944Z,62.00
2019-05-30T15:42:52.906Z,63.20
2019-05-30T15:45:20.580Z,63.10
2019-05-30T15:47:58.500Z,64.40
2019-05-30T15:50:27.695Z,64.90
2019-05-30T15:52:56.905Z,63.90
2019-05-30T15:55:26.376Z,64.00
2019-05-30T15:57:55.899Z,64.40
2019-05-30T16:00:25.229Z,64.80
2019-05-30T16:03:04.647Z,64.50
2019-05-30T16:05:29.835Z,63.90
2019-05-30T16:07:59.460Z,64.40
2019-05-30T16:10:28.801Z,64.80
2019-05-30T16:12:58.557Z,63.10
2019-05-30T16:15:28.133Z,62.80
2019-05-30T16:17:57.671Z,61.80
2019-05-30T16:20:26.989Z,62.50
2019-05-30T16:22:57.819Z,61.10
2019-05-30T16:25:27.615Z,62.00
2019-05-30T16:27:56.815Z,62.70
2019-05-30T16:30:27.115Z,64.00
2019-05-30T16:32:56.584Z,65.40
2019-05-30T16:35:26.460Z,65.40
2019-05-30T16:37:55.796Z,65.80
2019-05-30T16:40:25.117Z,66.30
2019-05-30T16:42:55.108Z,66.30
2019-05-30T16:45:25.249Z,66.50
2019-05-30T16:47:55.195Z,64.90
2019-05-30T16:50:24.839Z,63.20
2019-05-30T16:52:54.098Z,62.30
2019-05-30T16:55:27.604Z,62.70
2019-05-30T16:57:56.824Z,63.80
2019-05-30T17:00:26.095Z,64.20
2019-05-30T17:02:55.383Z,64.40
2019-05-30T17:05:25.002Z,64.00
2019-05-30T17:08:01.325Z,63.30
2019-05-30T17:10:33.109Z,62.60
2019-05-30T17:13:01.569Z,62.80
2019-05-30T17:15:30.683Z,62.90
2019-05-30T17:17:59.957Z,62.90
2019-05-30T17:20:29.220Z,62.70
2019-05-30T17:22:58.490Z,61.90
2019-05-30T17:25:27.756Z,60.50
2019-05-30T17:27:57.170Z,59.40
2019-05-30T17:30:26.396Z,61.30
2019-05-30T17:32:55.963Z,62.20
2019-05-30T17:35:26.279Z,62.50
2019-05-30T17:37:55.531Z,63.60
2019-05-30T17:40:39.095Z,65.00
2019-05-30T17:42:55.891Z,66.00
2019-05-30T17:45:25.238Z,68.10
2019-05-30T17:48:02.853Z,68.70
2019-05-30T17:50:26.009Z,70.10
2019-05-30T17:52:56.090Z,70.90
2019-05-30T17:55:25.992Z,71.90
2019-05-30T17:57:55.730Z,71.70
2019-05-30T18:00:26.100Z,72.40
2019-05-30T18:02:55.778Z,74.10
2019-05-30T18:05:25.096Z,74.00
2019-05-30T18:08:00.973Z,73.20
2019-05-30T18:10:31.209Z,73.40
2019-05-30T18:13:00.686Z,73.90
2019-05-30T18:15:32.371Z,73.40
2019-05-30T18:18:01.848Z,74.10
2019-05-30T18:20:31.600Z,75.30
2019-05-30T18:23:01.144Z,75.70
2019-05-30T18:25:30.385Z,75.90
2019-05-30T18:27:59.548Z,75.50
2019-05-30T18:30:42.687Z,76.10
2019-05-30T18:33:12.341Z,75.90
2019-05-30T18:35:41.515Z,76.50
2019-05-30T18:38:11.026Z,77.30
2019-05-30T18:40:41.100Z,76.70
2019-05-30T18:43:10.291Z,76.80
2019-05-30T18:45:41.134Z,77.10
2019-05-30T18:48:11.353Z,77.60
2019-05-30T18:50:41.148Z,77.70
2019-05-30T18:53:10.456Z,78.20
2019-05-30T18:55:40.082Z,78.00
2019-05-30T18:58:09.193Z,79.00
2019-05-30T19:00:38.432Z,79.90
2019-05-30T19:03:07.706Z,80.20
2019-05-30T19:05:37.108Z,80.00
2019-05-30T19:08:06.462Z,81.00
2019-05-30T19:10:36.649Z,81.50
2019-05-30T19:13:06.541Z,80.60
2019-05-30T19:15:35.718Z,81.00
2019-05-30T19:18:05.061Z,81.10
2019-05-30T19:20:34.214Z,81.20
2019-05-30T19:23:03.602Z,81.80
2019-05-30T19:25:35.644Z,81.90
2019-05-30T19:28:05.381Z,82.90
2019-05-30T19:30:34.910Z,83.10
2019-05-30T19:33:04.373Z,82.50
2019-05-30T19:35:33.613Z,82.70
2019-05-30T19:38:03.164Z,82.00
2019-05-30T19:40:33.575Z,82.20
2019-05-30T19:43:03.644Z,81.80
2019-05-30T19:45:34.067Z,82.30
2019-05-30T19:48:08.201Z,82.80
2019-05-30T19:50:38.946Z,82.90
2019-05-30T19:55:57.650Z,83.30
2019-05-30T19:59:03.175Z,83.60
2019-05-30T20:01:35.822Z,83.80
2019-05-30T20:04:05.307Z,83.80
2019-05-30T20:06:34.650Z,83.70
2019-05-30T20:09:10.452Z,83.80
2019-05-30T20:11:41.375Z,84.10
2019-05-30T20:14:11.354Z,84.00
2019-05-30T20:16:41.996Z,84.30
2019-05-30T20:19:18.534Z,84.60
2019-05-30T20:22:02.660Z,84.70
2019-05-30T20:24:36.141Z,85.00
2019-05-30T20:27:06.701Z,85.20
2019-05-30T20:29:37.116Z,85.10
2019-05-30T20:36:27.321Z,85.70
2019-05-30T20:40:37.395Z,85.70
2019-05-30T20:51:51.559Z,86.00
2019-05-30T20:55:26.145Z,86.00
2019-05-30T20:57:55.710Z,85.80
2019-05-30T21:00:37.658Z,85.70
2019-05-30T21:03:08.011Z,85.60
2019-05-30T21:05:37.769Z,85.80
2019-05-30T21:08:07.780Z,85.60
2019-05-30T21:10:39.267Z,85.40
2019-05-30T21:13:10.622Z,85.50
2019-05-30T21:15:41.770Z,85.70
2019-05-30T21:18:18.547Z,85.90
2019-05-30T21:20:48.633Z,86.10
2019-05-30T21:23:18.628Z,85.90
2019-05-30T21:25:48.065Z,86.20
2019-05-30T21:28:17.262Z,86.40
2019-05-30T21:30:47.529Z,86.60
2019-05-30T21:33:17.366Z,86.70
2019-05-30T21:35:48.111Z,87.00
2019-05-30T21:38:18.089Z,87.60
2019-05-30T21:40:48.667Z,87.90
2019-05-30T21:43:24.217Z,88.10
2019-05-30T21:46:07.081Z,88.40
2019-05-30T21:48:42.919Z,88.60
2019-05-30T21:51:13.717Z,88.80
2019-05-30T21:53:51.111Z,89.00
2019-05-30T21:56:36.725Z,89.40
2019-05-30T21:59:13.462Z,89.40
2019-05-30T22:01:57.083Z,89.50
2019-05-30T22:04:26.802Z,89.50
2019-05-30T22:06:57.105Z,89.50
2019-05-30T22:09:43.071Z,89.40
2019-05-30T22:12:13.221Z,89.50
2019-05-30T22:14:43.728Z,89.50
2019-05-30T22:17:13.022Z,89.60
2019-05-30T22:19:42.249Z,89.60
2019-05-30T22:22:11.654Z,89.90
2019-05-30T22:24:42.204Z,90.40
2019-05-30T22:27:11.571Z,90.80
2019-05-30T22:29:42.138Z,90.80
2019-05-30T22:32:11.615Z,91.00
2019-05-30T22:34:41.155Z,91.10
2019-05-30T22:37:10.319Z,91.10
2019-05-30T22:39:39.571Z,91.00
2019-05-30T22:42:09.146Z,91.20
2019-05-30T22:44:38.568Z,91.60
2019-05-30T22:47:07.735Z,91.60
2019-05-30T22:49:36.924Z,91.70
2019-05-30T22:52:06.343Z,91.50
2019-05-30T22:54:35.900Z,91.80
2019-05-30T22:57:05.050Z,92.00
2019-05-30T22:59:34.202Z,91.90
2019-05-30T23:02:03.561Z,92.20
2019-05-30T23:04:32.806Z,92.60
2019-05-30T23:07:02.251Z,92.70
2019-05-30T23:09:31.827Z,93.10
2019-05-30T23:12:01.512Z,93.60
2019-05-30T23:14:30.727Z,94.20
2019-05-30T23:16:59.985Z,94.20
2019-05-30T23:19:29.232Z,94.50
2019-05-30T23:21:58.532Z,94.30
2019-05-30T23:24:27.790Z,94.10
2019-05-30T23:26:57.963Z,93.90
2019-05-30T23:29:27.461Z,94.10
2019-05-30T23:31:56.639Z,94.20
2019-05-30T23:34:25.768Z,94.00
2019-05-30T23:36:54.945Z,93.90
2019-05-30T23:39:24.195Z,94.40
2019-05-30T23:41:53.428Z,94.70
2019-05-30T23:44:22.592Z,94.90
2019-05-30T23:46:51.925Z,95.00
2019-05-30T23:49:21.195Z,94.90
2019-05-30T23:51:50.368Z,94.70
2019-05-30T23:54:19.586Z,94.70
2019-05-30T23:56:50.546Z,94.10
2019-05-30T23:59:19.763Z,94.10
